sensor_id;sensor_type;location;lat;lon;timestamp;P1;durP1;ratioP1;P2;durP2;ratioP2
42146;SDS011;27815;43.410;11.852;2023-01-24T00:02:52;5.30;;;3.08;;
42146;SDS011;27815;43.410;11.852;2023-01-24T00:07:13;5.63;;;4.03;;
42146;SDS011;27815;43.410;11.852;2023-01-24T00:11:30;7.38;;;4.40;;
42146;SDS011;27815;43.410;11.852;2023-01-24T00:15:48;9.55;;;5.47;;
42146;SDS011;27815;43.410;11.852;2023-01-24T00:20:05;8.43;;;4.35;;
42146;SDS011;27815;43.410;11.852;2023-01-24T00:24:23;9.38;;;5.75;;
42146;SDS011;27815;43.410;11.852;2023-01-24T00:28:41;7.90;;;5.28;;
42146;SDS011;27815;43.410;11.852;2023-01-24T00:32:58;5.43;;;3.20;;
42146;SDS011;27815;43.410;11.852;2023-01-24T00:37:17;6.07;;;3.63;;
42146;SDS011;27815;43.410;11.852;2023-01-24T00:41:33;8.10;;;4.97;;
42146;SDS011;27815;43.410;11.852;2023-01-24T00:45:54;8.15;;;5.00;;
42146;SDS011;27815;43.410;11.852;2023-01-24T00:50:15;8.90;;;5.05;;
42146;SDS011;27815;43.410;11.852;2023-01-24T00:54:36;7.30;;;4.07;;
42146;SDS011;27815;43.410;11.852;2023-01-24T00:58:55;6.22;;;3.83;;
42146;SDS011;27815;43.410;11.852;2023-01-24T01:03:15;5.78;;;3.75;;
42146;SDS011;27815;43.410;11.852;2023-01-24T01:07:51;9.93;;;6.50;;
42146;SDS011;27815;43.410;11.852;2023-01-24T01:12:10;10.10;;;6.60;;
42146;SDS011;27815;43.410;11.852;2023-01-24T01:16:28;10.57;;;7.00;;
42146;SDS011;27815;43.410;11.852;2023-01-24T01:20:54;11.20;;;7.55;;
42146;SDS011;27815;43.410;11.852;2023-01-24T01:25:15;8.63;;;6.13;;
42146;SDS011;27815;43.410;11.852;2023-01-24T01:29:35;10.43;;;5.85;;
42146;SDS011;27815;43.410;11.852;2023-01-24T01:33:54;10.70;;;6.72;;
42146;SDS011;27815;43.410;11.852;2023-01-24T01:38:18;9.93;;;6.85;;
42146;SDS011;27815;43.410;11.852;2023-01-24T01:42:48;11.55;;;6.85;;
42146;SDS011;27815;43.410;11.852;2023-01-24T01:51:42;10.68;;;7.28;;
42146;SDS011;27815;43.410;11.852;2023-01-24T01:56:16;13.82;;;9.82;;
42146;SDS011;27815;43.410;11.852;2023-01-24T02:01:04;14.90;;;10.13;;
42146;SDS011;27815;43.410;11.852;2023-01-24T02:05:43;13.50;;;7.95;;
42146;SDS011;27815;43.410;11.852;2023-01-24T02:10:04;11.70;;;7.95;;
42146;SDS011;27815;43.410;11.852;2023-01-24T02:14:27;14.05;;;8.10;;
42146;SDS011;27815;43.410;11.852;2023-01-24T02:28:26;12.48;;;9.02;;
42146;SDS011;27815;43.410;11.852;2023-01-24T02:32:44;14.88;;;8.85;;
42146;SDS011;27815;43.410;11.852;2023-01-24T02:37:10;15.88;;;9.90;;
42146;SDS011;27815;43.410;11.852;2023-01-24T02:46:35;16.45;;;10.90;;
42146;SDS011;27815;43.410;11.852;2023-01-24T02:51:04;15.48;;;9.65;;
42146;SDS011;27815;43.410;11.852;2023-01-24T02:55:41;13.25;;;9.13;;
42146;SDS011;27815;43.410;11.852;2023-01-24T03:00:17;14.20;;;9.02;;
42146;SDS011;27815;43.410;11.852;2023-01-24T03:04:38;13.57;;;9.02;;
42146;SDS011;27815;43.410;11.852;2023-01-24T03:08:57;13.02;;;8.73;;
42146;SDS011;27815;43.410;11.852;2023-01-24T03:13:17;14.65;;;8.35;;
42146;SDS011;27815;43.410;11.852;2023-01-24T03:17:59;12.63;;;7.35;;
42146;SDS011;27815;43.410;11.852;2023-01-24T03:22:35;14.70;;;6.93;;
42146;SDS011;27815;43.410;11.852;2023-01-24T03:27:10;13.35;;;7.35;;
42146;SDS011;27815;43.410;11.852;2023-01-24T03:31:51;9.13;;;6.50;;
42146;SDS011;27815;43.410;11.852;2023-01-24T03:36:28;10.88;;;6.20;;
42146;SDS011;27815;43.410;11.852;2023-01-24T03:40:38;9.95;;;6.47;;
42146;SDS011;27815;43.410;11.852;2023-01-24T03:44:44;10.57;;;6.55;;
42146;SDS011;27815;43.410;11.852;2023-01-24T03:49:02;10.52;;;6.18;;
42146;SDS011;27815;43.410;11.852;2023-01-24T03:53:21;10.65;;;6.70;;
42146;SDS011;27815;43.410;11.852;2023-01-24T03:57:40;9.00;;;6.22;;
42146;SDS011;27815;43.410;11.852;2023-01-24T04:01:58;11.23;;;7.10;;
42146;SDS011;27815;43.410;11.852;2023-01-24T04:06:14;6.32;;;3.60;;
42146;SDS011;27815;43.410;11.852;2023-01-24T04:10:37;5.75;;;2.75;;
42146;SDS011;27815;43.410;11.852;2023-01-24T04:15:19;5.18;;;2.90;;
42146;SDS011;27815;43.410;11.852;2023-01-24T04:19:57;6.38;;;2.90;;
42146;SDS011;27815;43.410;11.852;2023-01-24T04:24:19;5.15;;;3.00;;
42146;SDS011;27815;43.410;11.852;2023-01-24T04:28:37;5.75;;;2.80;;
42146;SDS011;27815;43.410;11.852;2023-01-24T04:32:56;4.65;;;2.78;;
42146;SDS011;27815;43.410;11.852;2023-01-24T04:37:16;8.32;;;3.35;;
42146;SDS011;27815;43.410;11.852;2023-01-24T04:41:38;9.85;;;3.35;;
42146;SDS011;27815;43.410;11.852;2023-01-24T04:45:59;4.57;;;2.33;;
42146;SDS011;27815;43.410;11.852;2023-01-24T04:50:41;5.03;;;2.53;;
42146;SDS011;27815;43.410;11.852;2023-01-24T04:54:59;4.90;;;2.42;;
42146;SDS011;27815;43.410;11.852;2023-01-24T04:59:38;5.00;;;2.65;;
42146;SDS011;27815;43.410;11.852;2023-01-24T05:08:33;3.60;;;2.05;;
42146;SDS011;27815;43.410;11.852;2023-01-24T05:12:56;5.28;;;2.28;;
42146;SDS011;27815;43.410;11.852;2023-01-24T05:17:44;3.13;;;1.55;;
42146;SDS011;27815;43.410;11.852;2023-01-24T05:22:02;4.05;;;1.77;;
42146;SDS011;27815;43.410;11.852;2023-01-24T05:26:22;2.00;;;1.35;;
42146;SDS011;27815;43.410;11.852;2023-01-24T05:36:12;5.78;;;3.53;;
42146;SDS011;27815;43.410;11.852;2023-01-24T05:41:13;6.10;;;3.30;;
42146;SDS011;27815;43.410;11.852;2023-01-24T05:45:59;5.93;;;3.70;;
42146;SDS011;27815;43.410;11.852;2023-01-24T05:50:55;6.55;;;4.40;;
42146;SDS011;27815;43.410;11.852;2023-01-24T05:55:44;6.60;;;3.83;;
42146;SDS011;27815;43.410;11.852;2023-01-24T06:04:58;5.43;;;3.33;;
42146;SDS011;27815;43.410;11.852;2023-01-24T06:09:37;6.22;;;3.33;;
42146;SDS011;27815;43.410;11.852;2023-01-24T06:14:01;6.82;;;3.05;;
42146;SDS011;27815;43.410;11.852;2023-01-24T06:18:21;7.10;;;3.90;;
42146;SDS011;27815;43.410;11.852;2023-01-24T06:27:31;7.53;;;4.13;;
42146;SDS011;27815;43.410;11.852;2023-01-24T06:41:55;4.78;;;3.00;;
42146;SDS011;27815;43.410;11.852;2023-01-24T06:46:35;6.93;;;4.20;;
42146;SDS011;27815;43.410;11.852;2023-01-24T06:51:16;5.78;;;3.35;;
42146;SDS011;27815;43.410;11.852;2023-01-24T06:56:20;5.63;;;3.28;;
42146;SDS011;27815;43.410;11.852;2023-01-24T07:05:45;4.87;;;3.30;;
42146;SDS011;27815;43.410;11.852;2023-01-24T07:30:11;8.10;;;5.20;;
42146;SDS011;27815;43.410;11.852;2023-01-24T07:34:32;10.73;;;6.57;;
42146;SDS011;27815;43.410;11.852;2023-01-24T07:38:59;11.70;;;7.05;;
42146;SDS011;27815;43.410;11.852;2023-01-24T07:43:17;12.68;;;7.60;;
42146;SDS011;27815;43.410;11.852;2023-01-24T07:47:58;12.55;;;8.70;;
42146;SDS011;27815;43.410;11.852;2023-01-24T07:52:42;9.23;;;7.00;;
42146;SDS011;27815;43.410;11.852;2023-01-24T07:57:00;11.77;;;7.85;;
42146;SDS011;27815;43.410;11.852;2023-01-24T08:01:39;8.57;;;5.50;;
42146;SDS011;27815;43.410;11.852;2023-01-24T08:06:38;5.07;;;3.13;;
42146;SDS011;27815;43.410;11.852;2023-01-24T08:11:44;4.88;;;2.70;;
42146;SDS011;27815;43.410;11.852;2023-01-24T08:20:55;8.87;;;2.40;;
42146;SDS011;27815;43.410;11.852;2023-01-24T08:25:36;4.40;;;1.65;;
42146;SDS011;27815;43.410;11.852;2023-01-24T08:30:07;4.30;;;2.08;;
42146;SDS011;27815;43.410;11.852;2023-01-24T08:45:00;6.38;;;4.38;;
42146;SDS011;27815;43.410;11.852;2023-01-24T08:49:04;3.53;;;2.08;;
42146;SDS011;27815;43.410;11.852;2023-01-24T08:53:08;3.20;;;1.70;;
42146;SDS011;27815;43.410;11.852;2023-01-24T08:57:11;3.80;;;2.30;;
42146;SDS011;27815;43.410;11.852;2023-01-24T09:01:14;3.65;;;2.00;;
42146;SDS011;27815;43.410;11.852;2023-01-24T09:05:18;4.68;;;2.05;;
42146;SDS011;27815;43.410;11.852;2023-01-24T09:09:22;3.63;;;1.80;;
42146;SDS011;27815;43.410;11.852;2023-01-24T09:17:31;2.13;;;1.52;;
42146;SDS011;27815;43.410;11.852;2023-01-24T09:21:34;3.65;;;1.60;;
42146;SDS011;27815;43.410;11.852;2023-01-24T09:25:40;3.30;;;1.52;;
42146;SDS011;27815;43.410;11.852;2023-01-24T09:29:53;3.67;;;1.73;;
42146;SDS011;27815;43.410;11.852;2023-01-24T09:39:03;2.25;;;1.40;;
42146;SDS011;27815;43.410;11.852;2023-01-24T10:03:48;2.38;;;1.58;;
42146;SDS011;27815;43.410;11.852;2023-01-24T10:27:16;5.35;;;2.85;;
42146;SDS011;27815;43.410;11.852;2023-01-24T10:32:11;4.72;;;2.95;;
42146;SDS011;27815;43.410;11.852;2023-01-24T10:46:04;3.08;;;1.25;;
42146;SDS011;27815;43.410;11.852;2023-01-24T10:55:31;2.88;;;1.52;;
42146;SDS011;27815;43.410;11.852;2023-01-24T10:59:39;2.50;;;1.20;;
42146;SDS011;27815;43.410;11.852;2023-01-24T11:03:50;2.40;;;1.27;;
42146;SDS011;27815;43.410;11.852;2023-01-24T11:09:48;2.78;;;1.30;;
42146;SDS011;27815;43.410;11.852;2023-01-24T11:14:53;1.67;;;1.10;;
42146;SDS011;27815;43.410;11.852;2023-01-24T11:19:03;2.00;;;1.10;;
42146;SDS011;27815;43.410;11.852;2023-01-24T11:23:12;2.20;;;1.42;;
42146;SDS011;27815;43.410;11.852;2023-01-24T11:27:19;3.85;;;1.33;;
42146;SDS011;27815;43.410;11.852;2023-01-24T11:31:30;3.30;;;1.33;;
42146;SDS011;27815;43.410;11.852;2023-01-24T11:35:42;2.08;;;1.20;;
42146;SDS011;27815;43.410;11.852;2023-01-24T11:55:28;1.40;;;1.08;;
42146;SDS011;27815;43.410;11.852;2023-01-24T11:59:57;2.05;;;1.30;;
42146;SDS011;27815;43.410;11.852;2023-01-24T12:15:12;2.05;;;1.00;;
42146;SDS011;27815;43.410;11.852;2023-01-24T12:56:20;2.38;;;1.10;;
42146;SDS011;27815;43.410;11.852;2023-01-24T13:18:32;3.17;;;1.05;;
42146;SDS011;27815;43.410;11.852;2023-01-24T13:38:23;3.50;;;1.20;;
42146;SDS011;27815;43.410;11.852;2023-01-24T13:42:34;2.78;;;1.23;;
42146;SDS011;27815;43.410;11.852;2023-01-24T13:52:58;2.13;;;1.10;;
42146;SDS011;27815;43.410;11.852;2023-01-24T14:01:33;1.73;;;1.00;;
42146;SDS011;27815;43.410;11.852;2023-01-24T14:10:38;1.55;;;0.98;;
42146;SDS011;27815;43.410;11.852;2023-01-24T14:19:39;1.33;;;0.98;;
42146;SDS011;27815;43.410;11.852;2023-01-24T14:24:20;1.10;;;0.82;;
42146;SDS011;27815;43.410;11.852;2023-01-24T14:29:42;1.23;;;1.00;;
42146;SDS011;27815;43.410;11.852;2023-01-24T14:34:44;1.83;;;1.20;;
42146;SDS011;27815;43.410;11.852;2023-01-24T15:10:54;2.83;;;1.17;;
42146;SDS011;27815;43.410;11.852;2023-01-24T15:15:38;3.45;;;1.55;;
42146;SDS011;27815;43.410;11.852;2023-01-24T15:20:30;2.33;;;1.23;;
42146;SDS011;27815;43.410;11.852;2023-01-24T18:15:26;4.95;;;2.70;;
42146;SDS011;27815;43.410;11.852;2023-01-24T18:19:33;4.90;;;2.30;;
42146;SDS011;27815;43.410;11.852;2023-01-24T18:23:37;4.03;;;2.17;;
42146;SDS011;27815;43.410;11.852;2023-01-24T18:52:45;3.83;;;2.47;;
42146;SDS011;27815;43.410;11.852;2023-01-24T19:21:19;5.00;;;2.17;;
42146;SDS011;27815;43.410;11.852;2023-01-24T19:25:53;4.22;;;2.28;;
42146;SDS011;27815;43.410;11.852;2023-01-24T20:01:55;4.30;;;2.38;;
42146;SDS011;27815;43.410;11.852;2023-01-24T20:06:21;4.80;;;2.40;;
42146;SDS011;27815;43.410;11.852;2023-01-24T20:10:43;6.85;;;2.65;;
42146;SDS011;27815;43.410;11.852;2023-01-24T20:15:38;3.33;;;2.00;;
42146;SDS011;27815;43.410;11.852;2023-01-24T20:34:45;7.00;;;2.40;;
42146;SDS011;27815;43.410;11.852;2023-01-24T20:39:46;3.95;;;2.72;;
42146;SDS011;27815;43.410;11.852;2023-01-24T21:08:42;4.13;;;2.35;;
42146;SDS011;27815;43.410;11.852;2023-01-24T21:13:27;5.30;;;3.25;;
42146;SDS011;27815;43.410;11.852;2023-01-24T21:17:51;6.32;;;2.90;;
42146;SDS011;27815;43.410;11.852;2023-01-24T21:22:58;6.18;;;3.72;;
42146;SDS011;27815;43.410;11.852;2023-01-24T21:46:29;4.82;;;3.03;;
42146;SDS011;27815;43.410;11.852;2023-01-24T21:51:07;4.68;;;3.00;;
42146;SDS011;27815;43.410;11.852;2023-01-24T21:55:26;4.97;;;3.00;;
42146;SDS011;27815;43.410;11.852;2023-01-24T21:59:45;5.18;;;2.95;;
42146;SDS011;27815;43.410;11.852;2023-01-24T22:04:01;6.78;;;3.75;;
42146;SDS011;27815;43.410;11.852;2023-01-24T22:12:36;4.20;;;2.65;;
42146;SDS011;27815;43.410;11.852;2023-01-24T22:16:59;4.85;;;2.97;;
42146;SDS011;27815;43.410;11.852;2023-01-24T22:51:03;10.18;;;5.90;;
42146;SDS011;27815;43.410;11.852;2023-01-24T22:56:18;8.25;;;5.70;;
42146;SDS011;27815;43.410;11.852;2023-01-24T23:21:36;10.18;;;4.68;;
42146;SDS011;27815;43.410;11.852;2023-01-24T23:26:06;8.85;;;5.95;;
